Time;durP1;ratioP1;P1;durP2;ratioP2;P2;SDS_P1;SDS_P2;PMS_P1;PMS_P2;Temp;Humidity;BMP_temperature;BMP_pressure;BME280_temperature;BME280_humidity;BME280_pressure;Samples;Min_cycle;Max_cycle;Signal;HPM_P1;HPM_P2
2022/01/24 00:00:07;;;;;;;;;;;4.80;99.90;;;;;;4995917;28;20004;-74
2022/01/24 00:02:32;;;;;;;;;;;4.80;99.90;;;;;;5012114;28;19975;-74
2022/01/24 00:04:58;;;;;;;;;;;4.80;99.90;;;;;;4996262;28;19983;-75
2022/01/24 00:07:24;;;;;;;;;;;4.90;99.90;;;;;;4999490;28;19972;-74
2022/01/24 00:09:53;;;;;;;;;;;4.90;99.90;;;;;;5012338;28;19922;-75
2022/01/24 00:12:27;;;;;;;;;;;4.80;99.90;;;;;;4995885;28;19922;-74
2022/01/24 00:17:40;;;;;;;;;;;4.80;99.90;;;;;;5011795;28;19921;-74
2022/01/24 00:28:07;;;;;;;;;;;4.80;99.90;;;;;;5011685;28;20000;-74
2022/01/24 00:30:33;;;;;;;;;;;4.80;99.90;;;;;;4995614;28;20004;-74
2022/01/24 00:32:58;;;;;;;;;;;4.80;99.90;;;;;;5011207;28;19926;-76
2022/01/24 00:35:25;;;;;;;;;;;4.80;99.90;;;;;;5008823;28;20356;-74
2022/01/24 00:37:50;;;;;;;;;;;4.80;99.90;;;;;;4995667;28;19921;-74
2022/01/24 00:40:16;;;;;;;;;;;4.80;99.90;;;;;;5011807;28;20332;-74
2022/01/24 00:45:16;;;;;;;;;;;4.80;99.90;;;;;;5011359;28;20380;-74
2022/01/24 00:48:03;;;;;;;;;;;4.70;99.90;;;;;;5013104;28;19921;-74
2022/01/24 00:55:43;;;;;;;;;;;4.80;99.90;;;;;;5012814;28;20008;-74
2022/01/24 00:58:08;;;;;;;;;;;4.80;99.90;;;;;;4995533;28;19925;-74
2022/01/24 01:00:34;;;;;;;;;;;4.80;99.90;;;;;;5000967;28;19922;-74
2022/01/24 01:03:00;;;;;;;;;;;4.80;99.90;;;;;;4995021;28;20303;-75
2022/01/24 01:18:32;;;;;;;;;;;4.80;99.90;;;;;;5011538;28;20347;-74
2022/01/24 01:23:29;;;;;;;;;;;4.80;99.90;;;;;;5011586;28;19980;-74
2022/01/24 01:25:55;;;;;;;;;;;4.80;99.90;;;;;;5011079;28;20008;-75
2022/01/24 01:28:22;;;;;;;;;;;4.70;99.90;;;;;;5007443;28;19926;-75
2022/01/24 01:30:51;;;;;;;;;;;4.80;99.90;;;;;;5004922;28;19929;-74
2022/01/24 01:57:57;;;;;;;;;;;4.70;99.90;;;;;;5011122;28;19928;-75
2022/01/24 02:00:22;;;;;;;;;;;4.70;99.90;;;;;;5007260;28;19926;-74
2022/01/24 02:02:48;;;;;;;;;;;4.60;99.90;;;;;;5007588;28;19948;-74
2022/01/24 02:05:13;;;;;;;;;;;4.60;99.90;;;;;;5009477;28;19932;-75
2022/01/24 02:07:49;;;;;;;;;;;4.60;99.90;;;;;;4998456;28;19921;-75
2022/01/24 02:10:15;;;;;;;;;;;4.60;99.90;;;;;;4998249;28;20019;-74
2022/01/24 02:12:41;;;;;;;;;;;4.60;99.90;;;;;;4997807;28;19929;-77
2022/01/24 02:15:06;;;;;;;;;;;4.60;99.90;;;;;;5009108;28;20014;-74
2022/01/24 02:17:47;;;;;;;;;;;4.60;99.90;;;;;;4997776;28;19925;-74
2022/01/24 02:23:01;;;;;;;;;;;4.60;99.90;;;;;;5014495;28;20312;-74
2022/01/24 02:25:29;;;;;;;;;;;4.60;99.90;;;;;;5014419;28;20360;-74
2022/01/24 02:28:01;;;;;;;;;;;4.70;99.90;;;;;;5014119;28;19976;-74
2022/01/24 02:30:52;;;;;;;;;;;4.60;99.90;;;;;;5021540;28;19921;-74
2022/01/24 02:33:17;;;;;;;;;;;4.60;99.90;;;;;;4998018;28;19929;-74
2022/01/24 02:35:43;;;;;;;;;;;4.60;99.90;;;;;;4997632;28;19921;-74
2022/01/24 02:38:22;;;;;;;;;;;4.60;99.90;;;;;;4997753;28;19928;-74
2022/01/24 02:46:02;;;;;;;;;;;4.60;99.90;;;;;;4997701;28;20024;-74
2022/01/24 02:49:05;;;;;;;;;;;4.60;99.90;;;;;;5013629;28;20380;-74
2022/01/24 02:51:46;;;;;;;;;;;4.60;99.90;;;;;;4997480;28;20016;-74
2022/01/24 02:54:17;;;;;;;;;;;4.60;99.90;;;;;;4997833;28;19922;-77
2022/01/24 02:56:43;;;;;;;;;;;4.60;99.90;;;;;;4997528;28;19927;-74
2022/01/24 02:59:08;;;;;;;;;;;4.60;99.90;;;;;;4996897;28;19921;-74
2022/01/24 03:01:34;;;;;;;;;;;4.50;99.90;;;;;;4997817;28;20312;-77
2022/01/24 03:03:59;;;;;;;;;;;4.60;99.90;;;;;;4997092;28;19928;-74
2022/01/24 03:06:25;;;;;;;;;;;4.50;99.90;;;;;;5013624;28;19930;-74
2022/01/24 03:08:51;;;;;;;;;;;4.50;99.90;;;;;;5013107;28;19921;-75
2022/01/24 03:11:16;;;;;;;;;;;4.60;99.90;;;;;;5013599;28;19925;-74
2022/01/24 03:13:42;;;;;;;;;;;4.50;99.90;;;;;;5012444;28;20182;-74
2022/01/24 03:16:08;;;;;;;;;;;4.60;99.90;;;;;;4996691;28;19922;-74
2022/01/24 03:18:34;;;;;;;;;;;4.50;99.90;;;;;;5013146;28;20287;-75
2022/01/24 03:21:00;;;;;;;;;;;4.60;99.90;;;;;;4996815;28;20007;-74
2022/01/24 03:23:26;;;;;;;;;;;4.60;99.90;;;;;;5013043;28;20272;-75
2022/01/24 03:25:51;;;;;;;;;;;4.60;99.90;;;;;;4996823;28;19932;-75
2022/01/24 03:28:19;;;;;;;;;;;4.60;99.90;;;;;;5006658;28;19921;-76
2022/01/24 03:30:45;;;;;;;;;;;4.70;99.90;;;;;;5012812;28;19964;-76
2022/01/24 03:33:11;;;;;;;;;;;4.50;99.90;;;;;;4996432;28;20046;-76
2022/01/24 03:35:37;;;;;;;;;;;4.60;99.90;;;;;;4996394;28;19941;-74
2022/01/24 03:38:05;;;;;;;;;;;4.60;99.90;;;;;;4996253;28;19926;-75
2022/01/24 03:40:31;;;;;;;;;;;4.60;99.90;;;;;;5012945;28;20033;-74
2022/01/24 03:42:56;;;;;;;;;;;4.60;99.90;;;;;;5012987;28;20022;-74
2022/01/24 03:46:12;;;;;;;;;;;4.50;99.90;;;;;;5012680;28;19930;-74
2022/01/24 03:48:37;;;;;;;;;;;4.60;99.90;;;;;;5009595;28;19921;-75
2022/01/24 03:51:03;;;;;;;;;;;4.60;99.90;;;;;;5008007;28;19925;-74
2022/01/24 03:53:29;;;;;;;;;;;4.60;99.90;;;;;;4996131;28;19928;-74
2022/01/24 03:55:54;;;;;;;;;;;4.60;99.90;;;;;;4996149;28;19928;-74
2022/01/24 03:58:20;;;;;;;;;;;4.60;99.90;;;;;;4996128;28;19932;-75
2022/01/24 04:00:45;;;;;;;;;;;4.60;99.90;;;;;;4996286;28;19945;-74
2022/01/24 04:03:11;;;;;;;;;;;4.60;99.90;;;;;;4995932;28;19944;-74
2022/01/24 04:05:36;;;;;;;;;;;4.50;99.90;;;;;;5013335;28;19987;-75
2022/01/24 04:08:02;;;;;;;;;;;4.60;99.90;;;;;;4996734;28;19933;-74
2022/01/24 04:10:28;;;;;;;;;;;4.60;99.90;;;;;;5012180;28;19961;-74
2022/01/24 04:12:53;;;;;;;;;;;4.60;99.90;;;;;;4996397;28;20335;-74
2022/01/24 04:15:42;;;;;;;;;;;4.60;99.90;;;;;;5011946;28;20021;-74
2022/01/24 04:18:29;;;;;;;;;;;4.60;99.90;;;;;;5012412;28;19921;-74
2022/01/24 04:23:42;;;;;;;;;;;4.60;99.90;;;;;;5011855;28;19944;-74
2022/01/24 04:26:10;;;;;;;;;;;4.70;99.90;;;;;;5011351;28;19925;-74
2022/01/24 04:28:36;;;;;;;;;;;4.60;99.90;;;;;;5042468;22;19924;-76
2022/01/24 04:31:01;;;;;;;;;;;4.60;99.90;;;;;;5051195;28;19928;-76
2022/01/24 04:33:27;;;;;;;;;;;4.60;99.90;;;;;;5051534;28;19920;-76
2022/01/24 04:35:52;;;;;;;;;;;4.60;99.90;;;;;;5035305;28;20008;-76
2022/01/24 04:38:18;;;;;;;;;;;4.60;99.90;;;;;;5033869;28;20098;-76
2022/01/24 04:40:43;;;;;;;;;;;4.60;99.90;;;;;;5050959;28;19927;-76
2022/01/24 04:46:04;;;;;;;;;;;4.60;99.90;;;;;;5064755;28;19925;-76
2022/01/24 04:51:29;;;;;;;;;;;4.50;99.90;;;;;;5031561;28;19944;-76
2022/01/24 04:56:32;;;;;;;;;;;4.50;99.90;;;;;;5031133;28;19921;-76
2022/01/24 04:58:58;;;;;;;;;;;4.60;99.90;;;;;;5014869;28;20286;-76
2022/01/24 05:01:23;;;;;;;;;;;4.50;99.90;;;;;;5064329;28;19979;-76
2022/01/24 05:03:49;;;;;;;;;;;4.50;99.90;;;;;;5031109;28;20375;-77
2022/01/24 05:06:14;;;;;;;;;;;4.50;99.90;;;;;;5014670;28;20028;-76
2022/01/24 05:08:40;;;;;;;;;;;4.50;99.90;;;;;;5031071;28;19925;-76
2022/01/24 05:11:10;;;;;;;;;;;4.50;99.90;;;;;;5063961;28;19921;-76
2022/01/24 05:24:23;;;;;;;;;;;4.40;99.90;;;;;;5030937;28;20321;-76
2022/01/24 05:26:49;;;;;;;;;;;4.50;99.90;;;;;;5047712;28;19925;-76
2022/01/24 05:29:14;;;;;;;;;;;4.50;99.90;;;;;;5033843;28;19921;-76
2022/01/24 05:31:40;;;;;;;;;;;4.50;99.90;;;;;;5030844;28;20413;-76
2022/01/24 05:34:05;;;;;;;;;;;4.50;99.90;;;;;;5063972;28;19921;-77
2022/01/24 05:36:31;;;;;;;;;;;4.50;99.90;;;;;;5037356;28;19928;-76
2022/01/24 05:38:57;;;;;;;;;;;4.50;99.90;;;;;;5017679;28;19928;-76
2022/01/24 05:41:23;;;;;;;;;;;4.50;99.90;;;;;;5035680;28;20011;-76
2022/01/24 05:43:48;;;;;;;;;;;4.50;99.90;;;;;;5054624;28;19928;-76
2022/01/24 05:46:13;;;;;;;;;;;4.50;99.90;;;;;;5038117;28;20379;-76
2022/01/24 05:48:39;;;;;;;;;;;4.40;99.90;;;;;;5025516;28;19928;-76
2022/01/24 05:51:04;;;;;;;;;;;4.50;99.90;;;;;;5049363;28;19920;-76
2022/01/24 05:53:30;;;;;;;;;;;4.50;99.90;;;;;;5046828;28;19925;-76
2022/01/24 05:55:55;;;;;;;;;;;4.50;99.90;;;;;;5051286;28;19972;-76
2022/01/24 05:58:21;;;;;;;;;;;4.40;99.90;;;;;;5034611;28;19975;-76
2022/01/24 06:00:46;;;;;;;;;;;4.40;99.90;;;;;;5038966;28;19972;-76
2022/01/24 06:03:11;;;;;;;;;;;4.50;99.90;;;;;;5045891;28;19920;-77
2022/01/24 06:05:37;;;;;;;;;;;4.40;99.90;;;;;;5053406;28;20039;-78
2022/01/24 06:08:03;;;;;;;;;;;4.50;99.90;;;;;;5033459;28;19929;-77
2022/01/24 06:10:28;;;;;;;;;;;4.50;99.90;;;;;;5032905;28;19964;-76
2022/01/24 06:12:54;;;;;;;;;;;4.40;99.90;;;;;;5006277;28;19925;-76
2022/01/24 06:15:19;;;;;;;;;;;4.50;99.90;;;;;;5040089;28;19932;-77
2022/01/24 06:17:45;;;;;;;;;;;4.40;99.90;;;;;;5033858;28;19928;-76
2022/01/24 06:20:10;;;;;;;;;;;4.40;99.90;;;;;;5031406;28;19967;-76
2022/01/24 06:22:37;;;;;;;;;;;4.50;99.90;;;;;;5017402;28;19928;-76
2022/01/24 06:25:02;;;;;;;;;;;4.40;99.90;;;;;;5034064;28;20066;-76
2022/01/24 06:27:28;;;;;;;;;;;4.40;99.90;;;;;;5034242;28;20030;-75
2022/01/24 06:29:53;;;;;;;;;;;4.40;99.90;;;;;;5034106;28;19928;-76
2022/01/24 06:32:19;;;;;;;;;;;4.50;99.90;;;;;;5033992;28;20015;-75
2022/01/24 06:34:44;;;;;;;;;;;4.50;99.90;;;;;;5033707;28;19928;-76
2022/01/24 06:37:10;;;;;;;;;;;4.40;99.90;;;;;;5067028;28;20297;-75
2022/01/24 06:39:35;;;;;;;;;;;4.40;99.90;;;;;;5049678;28;20028;-75
2022/01/24 06:42:34;;;;;;;;;;;4.40;99.90;;;;;;5031086;28;19921;-76
2022/01/24 06:44:53;;;;;;;;;;;4.40;99.90;;;;;;5033311;28;19921;-78
2022/01/24 06:47:19;;;;;;;;;;;4.40;99.90;;;;;;5015773;28;19921;-76
2022/01/24 06:49:45;;;;;;;;;;;4.40;99.90;;;;;;5034136;28;20379;-76
2022/01/24 06:52:10;;;;;;;;;;;4.40;99.90;;;;;;5017096;28;19932;-76
2022/01/24 06:54:36;;;;;;;;;;;4.40;99.90;;;;;;5023397;28;20000;-76
2022/01/24 06:57:02;;;;;;;;;;;4.40;99.90;;;;;;5013883;28;19922;-75
2022/01/24 06:59:28;;;;;;;;;;;4.40;99.90;;;;;;5046929;28;19928;-76
2022/01/24 07:01:53;;;;;;;;;;;4.40;99.90;;;;;;5030273;28;19920;-76
2022/01/24 07:04:19;;;;;;;;;;;4.40;99.90;;;;;;5067807;28;19928;-76
2022/01/24 07:06:44;;;;;;;;;;;4.40;99.90;;;;;;5051877;28;19976;-77
2022/01/24 07:09:10;;;;;;;;;;;4.40;99.90;;;;;;5034940;28;19932;-77
2022/01/24 07:11:35;;;;;;;;;;;4.40;99.90;;;;;;5054252;28;19921;-79
2022/01/24 07:14:05;;;;;;;;;;;4.40;99.90;;;;;;5023831;28;20266;-78
2022/01/24 07:16:48;;;;;;;;;;;4.40;99.90;;;;;;5008830;28;19928;-77
2022/01/24 07:19:14;;;;;;;;;;;4.40;99.90;;;;;;5014629;28;20368;-77
2022/01/24 07:21:39;;;;;;;;;;;4.30;99.90;;;;;;5021805;28;19925;-77
2022/01/24 07:24:05;;;;;;;;;;;4.40;99.90;;;;;;5022632;28;20370;-77
2022/01/24 07:26:31;;;;;;;;;;;4.40;99.90;;;;;;5046148;28;20425;-76
2022/01/24 07:28:56;;;;;;;;;;;4.30;99.90;;;;;;5024948;28;19928;-76
2022/01/24 07:31:22;;;;;;;;;;;4.40;99.90;;;;;;5018288;28;19921;-76
2022/01/24 07:33:48;;;;;;;;;;;4.40;99.90;;;;;;5032593;28;20302;-76
2022/01/24 07:36:14;;;;;;;;;;;4.30;99.90;;;;;;5032885;28;19921;-76
2022/01/24 07:38:39;;;;;;;;;;;4.30;99.90;;;;;;5032632;28;19925;-76
2022/01/24 07:41:06;;;;;;;;;;;4.40;99.90;;;;;;5033016;28;19921;-76
2022/01/24 07:43:32;;;;;;;;;;;4.40;99.90;;;;;;5032287;28;19975;-76
2022/01/24 07:45:57;;;;;;;;;;;4.30;99.90;;;;;;5032588;28;19925;-76
2022/01/24 07:48:23;;;;;;;;;;;4.40;99.90;;;;;;5032465;28;19962;-76
2022/01/24 07:50:51;;;;;;;;;;;4.40;99.90;;;;;;5032660;28;20012;-76
2022/01/24 07:53:17;;;;;;;;;;;4.40;99.90;;;;;;5032373;28;19921;-76
2022/01/24 07:55:42;;;;;;;;;;;4.40;99.90;;;;;;5032851;28;20287;-76
2022/01/24 07:58:09;;;;;;;;;;;4.40;99.90;;;;;;5065646;28;19921;-76
2022/01/24 08:00:35;;;;;;;;;;;4.40;99.90;;;;;;5065451;28;19921;-76
2022/01/24 08:03:00;;;;;;;;;;;4.40;99.90;;;;;;5064943;28;19921;-76
2022/01/24 08:05:26;;;;;;;;;;;4.40;99.90;;;;;;5015831;28;19983;-76
2022/01/24 08:07:52;;;;;;;;;;;4.40;99.90;;;;;;5065845;28;19929;-76
2022/01/24 08:10:17;;;;;;;;;;;4.40;99.90;;;;;;5032141;28;19922;-76
2022/01/24 08:12:44;;;;;;;;;;;4.40;99.90;;;;;;5032338;28;19944;-76
2022/01/24 08:15:12;;;;;;;;;;;4.40;99.90;;;;;;5032420;28;20294;-76
2022/01/24 08:17:37;;;;;;;;;;;4.40;99.90;;;;;;5031981;28;20012;-76
2022/01/24 08:20:03;;;;;;;;;;;4.40;99.90;;;;;;5015609;28;20004;-76
2022/01/24 08:22:28;;;;;;;;;;;4.50;99.90;;;;;;5048590;28;20409;-76
2022/01/24 08:24:54;;;;;;;;;;;4.50;99.90;;;;;;5031614;28;19928;-77
2022/01/24 08:27:19;;;;;;;;;;;4.50;99.90;;;;;;5032228;28;19925;-77
2022/01/24 08:29:45;;;;;;;;;;;4.50;99.90;;;;;;5015169;28;19921;-77
2022/01/24 08:32:11;;;;;;;;;;;4.50;99.90;;;;;;5048727;28;20320;-77
2022/01/24 08:34:37;;;;;;;;;;;4.50;99.90;;;;;;5031593;28;19921;-77
2022/01/24 08:37:03;;;;;;;;;;;4.60;99.90;;;;;;5031891;28;20371;-75
2022/01/24 08:39:29;;;;;;;;;;;4.60;99.90;;;;;;5048287;28;19928;-75
2022/01/24 08:44:33;;;;;;;;;;;4.60;99.90;;;;;;5031312;28;19932;-75
2022/01/24 08:46:59;;;;;;;;;;;4.60;99.90;;;;;;5031472;28;19969;-75
2022/01/24 08:49:24;;;;;;;;;;;4.60;99.90;;;;;;5015293;28;20126;-75
2022/01/24 08:51:50;;;;;;;;;;;4.60;99.90;;;;;;5031417;28;19933;-75
2022/01/24 08:54:16;;;;;;;;;;;4.70;99.90;;;;;;5014670;28;19991;-74
2022/01/24 08:56:41;;;;;;;;;;;4.70;99.90;;;;;;5014940;28;20016;-74
2022/01/24 08:59:07;;;;;;;;;;;4.70;99.90;;;;;;5031526;28;20272;-74
2022/01/24 09:01:32;;;;;;;;;;;4.70;99.90;;;;;;5031582;28;19925;-74
2022/01/24 09:03:58;;;;;;;;;;;4.70;99.90;;;;;;5014595;28;19960;-74
2022/01/24 09:06:24;;;;;;;;;;;4.70;99.90;;;;;;5031155;28;19948;-74
2022/01/24 09:08:55;;;;;;;;;;;4.70;99.90;;;;;;5031115;28;19936;-74
2022/01/24 09:11:28;;;;;;;;;;;4.70;99.90;;;;;;5014774;28;19921;-74
2022/01/24 09:13:53;;;;;;;;;;;4.80;99.90;;;;;;5030679;28;19932;-74
2022/01/24 09:16:19;;;;;;;;;;;4.80;99.90;;;;;;5031382;28;19921;-74
2022/01/24 09:18:44;;;;;;;;;;;4.80;99.90;;;;;;5030989;28;19921;-74
2022/01/24 09:21:10;;;;;;;;;;;4.80;99.90;;;;;;5031327;28;19983;-74
2022/01/24 09:23:35;;;;;;;;;;;4.80;99.90;;;;;;5030832;28;20012;-74
2022/01/24 09:26:01;;;;;;;;;;;4.80;99.90;;;;;;5030801;28;19929;-74
2022/01/24 09:28:26;;;;;;;;;;;4.80;99.90;;;;;;5047325;28;19928;-74
2022/01/24 09:30:53;;;;;;;;;;;4.80;99.90;;;;;;5030872;28;20050;-74
2022/01/24 09:33:18;;;;;;;;;;;4.80;99.90;;;;;;5030692;28;19928;-74
2022/01/24 09:35:44;;;;;;;;;;;4.90;99.90;;;;;;5030896;28;20311;-74
2022/01/24 09:38:10;;;;;;;;;;;4.90;99.90;;;;;;5030764;28;20453;-74
2022/01/24 09:40:36;;;;;;;;;;;4.90;99.90;;;;;;5064169;28;19928;-74
2022/01/24 09:43:02;;;;;;;;;;;4.90;99.90;;;;;;5030585;28;20303;-74
2022/01/24 09:45:27;;;;;;;;;;;4.90;99.90;;;;;;5030692;28;19929;-74
2022/01/24 09:47:53;;;;;;;;;;;4.90;99.90;;;;;;5030986;28;20287;-74
2022/01/24 09:50:19;;;;;;;;;;;4.90;99.90;;;;;;5030733;28;19921;-74
2022/01/24 09:52:45;;;;;;;;;;;4.90;99.90;;;;;;5063879;28;19921;-74
2022/01/24 09:55:11;;;;;;;;;;;4.90;99.90;;;;;;5063933;28;19925;-74
2022/01/24 09:57:37;;;;;;;;;;;5.00;99.90;;;;;;5030545;28;19971;-74
2022/01/24 10:00:04;;;;;;;;;;;5.00;99.90;;;;;;5014188;28;19932;-74
2022/01/24 10:02:29;;;;;;;;;;;5.00;99.90;;;;;;5063777;28;19925;-74
2022/01/24 10:05:10;;;;;;;;;;;5.00;99.90;;;;;;5030335;28;19921;-74
2022/01/24 10:07:37;;;;;;;;;;;5.00;99.90;;;;;;5030561;28;19928;-74
2022/01/24 10:10:03;;;;;;;;;;;5.00;99.90;;;;;;5030836;28;20475;-74
2022/01/24 10:17:52;;;;;;;;;;;5.00;99.90;;;;;;5030444;28;19967;-74
2022/01/24 10:20:20;;;;;;;;;;;5.10;99.90;;;;;;5030408;28;19925;-74
2022/01/24 10:23:04;;;;;;;;;;;5.10;99.90;;;;;;5030264;28;19983;-74
2022/01/24 10:25:30;;;;;;;;;;;5.10;99.90;;;;;;5066326;28;20455;-74
2022/01/24 10:30:26;;;;;;;;;;;5.00;99.90;;;;;;5078610;22;19925;-73
2022/01/24 10:32:52;;;;;;;;;;;5.00;99.90;;;;;;5037009;28;20107;-73
2022/01/24 10:35:35;;;;;;;;;;;5.00;99.90;;;;;;5037554;28;19927;-73
2022/01/24 10:38:24;;;;;;;;;;;5.00;99.90;;;;;;5054094;28;19925;-73
2022/01/24 10:40:54;;;;;;;;;;;5.00;99.90;;;;;;5054165;28;19970;-73
2022/01/24 10:43:22;;;;;;;;;;;5.10;99.90;;;;;;5053464;28;19932;-73
2022/01/24 10:45:48;;;;;;;;;;;5.10;99.90;;;;;;5037158;28;19971;-73
2022/01/24 10:48:14;;;;;;;;;;;5.10;99.90;;;;;;5053762;28;20460;-73
2022/01/24 10:50:40;;;;;;;;;;;5.10;99.90;;;;;;5053731;28;20072;-73
2022/01/24 10:53:10;;;;;;;;;;;5.10;99.90;;;;;;5054722;28;20310;-73
2022/01/24 10:55:35;;;;;;;;;;;5.10;99.90;;;;;;5053447;28;19971;-73
2022/01/24 10:58:04;;;;;;;;;;;5.10;99.90;;;;;;5053876;28;19986;-73
2022/01/24 11:00:30;;;;;;;;;;;5.10;99.90;;;;;;5053627;28;20283;-73
2022/01/24 11:03:03;;;;;;;;;;;5.20;99.90;;;;;;5053367;28;19929;-73
2022/01/24 11:05:36;;;;;;;;;;;5.20;99.90;;;;;;5053599;28;20398;-73
2022/01/24 11:08:15;;;;;;;;;;;5.20;99.90;;;;;;5053532;28;19924;-73
2022/01/24 11:10:42;;;;;;;;;;;5.20;99.90;;;;;;5054926;28;20359;-73
2022/01/24 11:13:08;;;;;;;;;;;5.20;99.90;;;;;;5052477;28;19924;-73
2022/01/24 11:15:35;;;;;;;;;;;5.30;99.90;;;;;;5053427;28;20003;-73
2022/01/24 11:18:01;;;;;;;;;;;5.20;99.90;;;;;;5053225;28;19925;-73
2022/01/24 11:20:33;;;;;;;;;;;5.30;99.90;;;;;;5053468;28;19986;-72
2022/01/24 11:23:04;;;;;;;;;;;5.20;99.90;;;;;;5054078;28;19928;-72
2022/01/24 11:25:38;;;;;;;;;;;5.20;99.90;;;;;;5052840;28;19979;-72
2022/01/24 11:28:04;;;;;;;;;;;5.30;99.90;;;;;;5052650;28;19975;-72
2022/01/24 11:30:47;;;;;;;;;;;5.20;99.90;;;;;;5036215;28;19921;-72
2022/01/24 11:33:25;;;;;;;;;;;5.30;99.90;;;;;;5052560;28;20379;-72
2022/01/24 11:35:52;;;;;;;;;;;5.30;99.90;;;;;;5052547;28;20072;-72
2022/01/24 11:38:29;;;;;;;;;;;5.30;99.90;;;;;;5052663;28;19927;-72
2022/01/24 11:40:58;;;;;;;;;;;5.30;99.90;;;;;;5036496;28;19947;-72
2022/01/24 11:43:24;;;;;;;;;;;5.30;99.90;;;;;;5052414;28;20044;-72
2022/01/24 11:46:00;;;;;;;;;;;5.30;99.90;;;;;;5052409;28;19974;-72
2022/01/24 11:48:25;;;;;;;;;;;5.30;99.90;;;;;;5052688;28;19928;-72
2022/01/24 11:50:55;;;;;;;;;;;5.30;99.90;;;;;;5052425;28;19924;-72
2022/01/24 11:53:23;;;;;;;;;;;5.30;99.90;;;;;;5052302;28;20397;-72
2022/01/24 11:55:49;;;;;;;;;;;5.20;99.90;;;;;;5035754;28;19960;-72
2022/01/24 11:58:21;;;;;;;;;;;5.20;99.90;;;;;;5052120;28;19927;-72
2022/01/24 12:00:47;;;;;;;;;;;5.20;99.90;;;;;;5052320;28;20003;-72
2022/01/24 12:03:20;;;;;;;;;;;5.20;99.90;;;;;;5051941;28;20351;-72
2022/01/24 12:05:48;;;;;;;;;;;5.30;99.90;;;;;;5052113;28;20379;-72
2022/01/24 12:08:27;;;;;;;;;;;5.30;99.90;;;;;;5052171;28;19921;-72
2022/01/24 12:10:55;;;;;;;;;;;5.30;99.90;;;;;;5035694;28;19931;-72
2022/01/24 12:13:35;;;;;;;;;;;5.30;99.90;;;;;;5052293;28;19925;-72
2022/01/24 12:16:02;;;;;;;;;;;5.30;99.90;;;;;;5052289;28;19924;-73
2022/01/24 12:18:29;;;;;;;;;;;5.20;99.90;;;;;;5035443;28;20586;-73
2022/01/24 12:21:06;;;;;;;;;;;5.20;99.90;;;;;;5034796;28;19928;-73
2022/01/24 12:23:34;;;;;;;;;;;5.20;99.90;;;;;;5051725;28;19921;-73
2022/01/24 12:26:02;;;;;;;;;;;5.20;99.90;;;;;;5052046;28;19925;-73
2022/01/24 12:28:32;;;;;;;;;;;5.20;99.90;;;;;;5051964;28;19943;-73
2022/01/24 12:31:00;;;;;;;;;;;5.20;99.90;;;;;;5051134;28;21594;-73
2022/01/24 12:33:30;;;;;;;;;;;5.20;99.90;;;;;;5051424;28;19920;-73
2022/01/24 12:35:55;;;;;;;;;;;5.20;99.90;;;;;;5035329;28;19921;-73
2022/01/24 12:38:21;;;;;;;;;;;5.20;99.90;;;;;;5052004;28;20333;-73
2022/01/24 12:40:47;;;;;;;;;;;5.20;99.90;;;;;;5051540;28;19932;-73
2022/01/24 12:43:28;;;;;;;;;;;5.20;99.90;;;;;;5051234;28;19925;-72
2022/01/24 12:48:38;;;;;;;;;;;5.10;99.90;;;;;;5050985;28;19974;-73
2022/01/24 12:51:04;;;;;;;;;;;5.10;99.90;;;;;;5034802;28;20321;-73
2022/01/24 12:53:35;;;;;;;;;;;5.10;99.90;;;;;;5034519;28;19967;-73
2022/01/24 12:56:02;;;;;;;;;;;5.10;99.90;;;;;;5051639;28;20287;-73
2022/01/24 12:58:29;;;;;;;;;;;5.10;99.90;;;;;;5034741;28;20324;-73
2022/01/24 13:00:55;;;;;;;;;;;5.10;99.90;;;;;;5051689;28;20019;-73
2022/01/24 13:03:20;;;;;;;;;;;5.10;99.90;;;;;;5051238;28;20024;-73
2022/01/24 13:05:46;;;;;;;;;;;5.10;99.90;;;;;;5034312;28;19932;-73
2022/01/24 13:08:14;;;;;;;;;;;5.10;99.90;;;;;;5051198;28;20431;-73
2022/01/24 13:10:40;;;;;;;;;;;5.10;99.90;;;;;;5034641;28;20287;-73
2022/01/24 13:13:10;;;;;;;;;;;5.10;99.90;;;;;;5051001;28;20339;-73
2022/01/24 13:21:11;;;;;;;;;;;5.10;99.90;;;;;;5050878;28;19970;-74
2022/01/24 13:23:42;;;;;;;;;;;5.10;99.90;;;;;;5034104;28;20268;-74
2022/01/24 13:26:08;;;;;;;;;;;5.10;99.90;;;;;;5050696;28;20439;-74
2022/01/24 13:28:33;;;;;;;;;;;5.10;99.90;;;;;;5050614;28;19921;-74
2022/01/24 13:31:01;;;;;;;;;;;5.10;99.90;;;;;;5050876;28;20305;-74
2022/01/24 13:33:27;;;;;;;;;;;5.10;99.90;;;;;;5050636;28;19921;-74
2022/01/24 13:36:00;;;;;;;;;;;5.10;99.90;;;;;;5050750;28;19970;-74
2022/01/24 13:38:31;;;;;;;;;;;5.10;99.90;;;;;;5050711;28;19946;-74
2022/01/24 13:41:01;;;;;;;;;;;5.10;99.90;;;;;;5052090;28;19991;-73
2022/01/24 13:43:37;;;;;;;;;;;5.10;99.90;;;;;;5034339;28;19921;-73
2022/01/24 13:46:13;;;;;;;;;;;5.10;99.90;;;;;;5050722;28;20299;-73
2022/01/24 13:48:43;;;;;;;;;;;5.10;99.90;;;;;;5050503;28;19921;-73
2022/01/24 13:51:09;;;;;;;;;;;5.10;99.90;;;;;;5050554;28;20014;-73
2022/01/24 13:53:40;;;;;;;;;;;5.10;99.90;;;;;;5033852;28;19920;-73
2022/01/24 13:56:35;;;;;;;;;;;5.10;99.90;;;;;;5050538;28;19928;-74
2022/01/24 13:59:08;;;;;;;;;;;5.10;99.90;;;;;;5020979;28;19928;-74
2022/01/24 14:01:34;;;;;;;;;;;5.00;99.90;;;;;;5054522;28;20379;-74
2022/01/24 14:04:01;;;;;;;;;;;5.00;99.90;;;;;;5037806;28;19920;-74
2022/01/24 14:06:31;;;;;;;;;;;5.00;99.90;;;;;;5054580;28;19936;-74
2022/01/24 14:09:10;;;;;;;;;;;5.00;99.90;;;;;;5054637;28;20331;-74
2022/01/24 14:11:54;;;;;;;;;;;5.00;99.90;;;;;;5054391;28;20379;-73
2022/01/24 14:14:25;;;;;;;;;;;5.00;99.90;;;;;;5054191;28;19921;-73
2022/01/24 14:19:16;;;;;;;;;;;5.00;99.90;;;;;;5054184;28;20375;-73
2022/01/24 14:22:01;;;;;;;;;;;5.00;99.90;;;;;;5054210;28;20378;-73
2022/01/24 14:24:43;;;;;;;;;;;5.00;99.90;;;;;;5053812;28;19927;-73
2022/01/24 14:27:08;;;;;;;;;;;5.00;99.90;;;;;;5037458;28;20297;-73
2022/01/24 14:29:38;;;;;;;;;;;5.00;99.90;;;;;;5054075;28;20066;-73
2022/01/24 14:32:10;;;;;;;;;;;4.90;99.90;;;;;;5053980;28;19920;-73
2022/01/24 14:34:36;;;;;;;;;;;4.90;99.90;;;;;;5053787;28;19924;-73
2022/01/24 14:37:05;;;;;;;;;;;4.90;99.90;;;;;;5037628;28;19931;-74
2022/01/24 14:39:31;;;;;;;;;;;4.90;99.90;;;;;;5053993;28;19932;-74
2022/01/24 14:41:57;;;;;;;;;;;4.90;99.90;;;;;;5053892;28;19921;-74
2022/01/24 14:47:07;;;;;;;;;;;4.90;99.90;;;;;;5053834;28;19928;-74
2022/01/24 14:49:36;;;;;;;;;;;4.90;99.90;;;;;;5037239;28;20240;-74
2022/01/24 14:52:05;;;;;;;;;;;4.80;99.90;;;;;;5053605;28;19964;-74
2022/01/24 14:54:34;;;;;;;;;;;4.80;99.90;;;;;;5053370;28;20391;-73
2022/01/24 14:57:02;;;;;;;;;;;4.80;99.90;;;;;;5037124;28;19921;-74
2022/01/24 14:59:28;;;;;;;;;;;4.80;99.90;;;;;;5036766;28;20445;-74
2022/01/24 15:01:54;;;;;;;;;;;4.80;99.90;;;;;;5054042;28;20345;-74
2022/01/24 15:04:20;;;;;;;;;;;4.70;99.90;;;;;;5036588;28;19928;-74
2022/01/24 15:06:46;;;;;;;;;;;4.70;99.90;;;;;;5053536;28;20367;-74
2022/01/24 15:09:13;;;;;;;;;;;4.70;99.90;;;;;;5053264;28;19990;-74
2022/01/24 15:11:40;;;;;;;;;;;4.70;99.90;;;;;;5053039;28;20018;-73
2022/01/24 15:14:14;;;;;;;;;;;4.60;99.90;;;;;;5036335;28;19927;-74
2022/01/24 15:27:11;;;;;;;;;;;4.50;99.90;;;;;;5053000;28;20127;-74
2022/01/24 15:29:40;;;;;;;;;;;4.50;99.90;;;;;;5036224;28;19967;-74
2022/01/24 15:32:05;;;;;;;;;;;4.50;99.90;;;;;;5036465;28;20015;-73
2022/01/24 15:34:32;;;;;;;;;;;4.50;99.90;;;;;;5036111;28;20012;-74
2022/01/24 15:36:58;;;;;;;;;;;4.50;99.90;;;;;;5036082;28;19928;-74
2022/01/24 15:39:24;;;;;;;;;;;4.40;99.90;;;;;;5035984;28;19921;-74
2022/01/24 15:41:57;;;;;;;;;;;4.40;99.90;;;;;;5052706;28;19921;-74
2022/01/24 15:46:57;;;;;;;;;;;4.40;99.90;;;;;;5052547;28;20244;-74
2022/01/24 15:49:22;;;;;;;;;;;4.30;99.90;;;;;;5035789;28;19925;-74
2022/01/24 15:51:48;;;;;;;;;;;4.40;99.90;;;;;;5052707;28;19928;-74
2022/01/24 15:54:17;;;;;;;;;;;4.30;99.90;;;;;;5052260;28;20373;-74
2022/01/24 15:59:09;;;;;;;;;;;4.30;99.90;;;;;;5052646;28;20015;-74
2022/01/24 16:01:36;;;;;;;;;;;4.30;99.90;;;;;;5052325;28;19920;-74
2022/01/24 16:04:02;;;;;;;;;;;4.30;99.90;;;;;;5035407;28;20408;-74
2022/01/24 16:06:28;;;;;;;;;;;4.30;99.90;;;;;;5052300;28;19925;-74
2022/01/24 16:08:53;;;;;;;;;;;4.30;99.90;;;;;;5052294;28;19927;-74
2022/01/24 16:11:20;;;;;;;;;;;4.20;99.90;;;;;;5052110;28;20294;-74
2022/01/24 16:13:46;;;;;;;;;;;4.20;99.90;;;;;;5051903;28;20017;-74
2022/01/24 16:16:12;;;;;;;;;;;4.20;99.90;;;;;;5052007;28;20360;-74
2022/01/24 16:18:40;;;;;;;;;;;4.20;99.90;;;;;;5051868;28;20004;-74
2022/01/24 16:21:25;;;;;;;;;;;4.20;99.90;;;;;;5052118;28;20363;-74
2022/01/24 16:25:19;;;;;;;;;;;4.20;99.90;;;;;;5034501;28;19978;-74
2022/01/24 16:26:40;;;;;;;;;;;4.10;99.90;;;;;;5051916;28;20003;-74
2022/01/24 16:29:06;;;;;;;;;;;4.10;99.90;;;;;;5035642;28;19924;-73
2022/01/24 16:31:32;;;;;;;;;;;4.10;99.90;;;;;;5035491;28;19947;-73
2022/01/24 16:33:58;;;;;;;;;;;4.10;99.90;;;;;;5034819;28;19964;-73
2022/01/24 16:36:23;;;;;;;;;;;4.10;99.90;;;;;;5035252;28;20436;-73
2022/01/24 16:38:49;;;;;;;;;;;4.10;99.90;;;;;;5035025;28;20003;-73
2022/01/24 16:41:21;;;;;;;;;;;4.10;99.90;;;;;;5051636;28;19968;-73
2022/01/24 16:49:23;;;;;;;;;;;4.00;99.90;;;;;;5051508;28;19927;-73